Time;durP1;ratioP1;P1;durP2;ratioP2;P2;SDS_P1;SDS_P2;PMS_P1;PMS_P2;Temp;Humidity;BMP_temperature;BMP_pressure;BME280_temperature;BME280_humidity;BME280_pressure;Samples;Min_cycle;Max_cycle;Signal;HPM_P1;HPM_P2
2024/01/10 00:02:04;;;;;;;277.45;137.48;;;-2.60;99.90;;;;;;6047953;23;20043;-81
2024/01/10 00:04:35;;;;;;;279.50;135.80;;;-2.60;99.90;;;;;;6048732;23;20078;-82
2024/01/10 00:07:02;;;;;;;253.63;127.07;;;-2.70;77.60;;;;;;6014429;23;20102;-82
2024/01/10 00:09:38;;;;;;;261.83;132.70;;;-2.80;99.90;;;;;;6047431;23;20071;-81
2024/01/10 00:12:22;;;;;;;243.45;123.70;;;-2.80;99.90;;;;;;6122460;23;20033;-77
2024/01/10 00:15:15;;;;;;;266.58;133.63;;;-2.80;1.00;;;;;;6192303;23;20001;-77
2024/01/10 00:18:32;;;;;;;239.77;123.68;;;-2.80;99.90;;;;;;6146869;23;20342;-76
2024/01/10 00:21:22;;;;;;;235.63;118.07;;;-2.80;99.90;;;;;;6157093;23;20042;-74
2024/01/10 00:23:50;;;;;;;200.07;105.28;;;-2.80;1.00;;;;;;6166317;23;20017;-74
2024/01/10 00:26:25;;;;;;;217.35;111.43;;;-2.90;84.80;;;;;;6131529;23;20096;-74
2024/01/10 00:29:44;;;;;;;209.57;108.50;;;-3.00;99.90;;;;;;6166765;23;20021;-77
2024/01/10 00:32:44;;;;;;;193.95;101.40;;;-3.00;99.90;;;;;;6167270;23;20446;-76
2024/01/10 00:35:47;;;;;;;166.38;88.57;;;-3.00;99.90;;;;;;6146217;23;20032;-77
2024/01/10 00:42:13;;;;;;;165.73;89.22;;;-3.00;99.90;;;;;;6130057;23;20018;-77
2024/01/10 00:45:21;;;;;;;;;;;;;;;;;;;;;
2024/01/10 00:48:47;;;;;;;156.60;83.15;;;-3.10;1.00;;;;;;6148072;23;20072;-77
2024/01/10 00:54:58;;;;;;;153.73;86.13;;;-3.30;99.90;;;;;;6004009;23;20028;-79
2024/01/10 00:58:01;;;;;;;151.30;83.88;;;-3.40;99.90;;;;;;6052232;23;20019;-76
2024/01/10 01:04:25;;;;;;;141.00;77.80;;;-3.40;1.00;;;;;;5919799;24;20400;-75
2024/01/10 01:10:31;;;;;;;143.88;79.68;;;-3.50;1.00;;;;;;5929158;24;20028;-77
2024/01/10 01:17:01;;;;;;;138.77;75.80;;;-3.60;1.00;;;;;;5963435;24;20025;-77
2024/01/10 01:20:03;;;;;;;;;;;;;;;;;;;;;
2024/01/10 01:22:49;;;;;;;133.63;73.43;;;-3.60;1.00;;;;;;5931592;24;20425;-76
2024/01/10 01:31:53;;;;;;;133.57;74.78;;;-3.90;1.00;;;;;;6015960;23;20391;-78
2024/01/10 01:38:07;;;;;;;138.80;77.25;;;-3.80;1.00;;;;;;6040201;23;20094;-78
2024/01/10 01:41:14;;;;;;;131.45;74.93;;;-3.90;1.00;;;;;;6125231;23;20009;-78
2024/01/10 01:44:13;;;;;;;139.20;77.32;;;-4.00;1.00;;;;;;6114973;23;20453;-78
2024/01/10 01:50:33;;;;;;;138.50;75.82;;;-4.10;1.00;;;;;;6116074;23;20018;-75
2024/01/10 01:53:54;;;;;;;141.38;74.50;;;-4.20;1.00;;;;;;6140573;23;20017;-76
2024/01/10 01:56:57;;;;;;;118.55;64.55;;;-4.30;99.90;;;;;;6122584;23;20025;-76
2024/01/10 02:03:26;;;;;;;118.65;64.60;;;-4.30;99.90;;;;;;6116973;23;20050;-75
2024/01/10 02:09:46;;;;;;;117.75;66.25;;;-4.50;1.00;;;;;;6091784;23;20022;-75
2024/01/10 02:16:14;;;;;;;147.27;79.82;;;-4.50;99.90;;;;;;6100864;23;20034;-76
2024/01/10 02:19:20;;;;;;;125.03;68.38;;;-4.50;27.30;;;;;;6083377;23;20025;-77
2024/01/10 02:22:24;;;;;;;117.25;63.67;;;-4.60;1.00;;;;;;6137574;23;20033;-76
2024/01/10 02:25:05;;;;;;;139.30;70.90;;;-4.70;41.10;;;;;;6104223;23;20041;-76
2024/01/10 02:27:42;;;;;;;164.73;85.88;;;-4.70;99.90;;;;;;6107186;23;20018;-76
2024/01/10 02:30:37;;;;;;;160.57;88.18;;;-4.80;99.90;;;;;;6142008;23;20140;-76
2024/01/10 02:33:47;;;;;;;157.95;87.57;;;-4.90;99.90;;;;;;6140352;23;20032;-78
2024/01/10 02:43:09;;;;;;;;;;;;;;;;;;;;;
2024/01/10 02:46:08;;;;;;;107.55;60.92;;;-4.70;99.90;;;;;;6139451;23;20046;-80
2024/01/10 02:48:54;;;;;;;96.20;55.40;;;-4.70;1.00;;;;;;6108414;23;20286;-76
2024/01/10 02:51:35;;;;;;;93.38;53.75;;;-4.80;1.00;;;;;;6105722;23;20458;-77
2024/01/10 02:54:26;;;;;;;94.38;55.63;;;-4.80;1.00;;;;;;6103996;23;20093;-77
2024/01/10 03:03:45;;;;;;;95.85;54.88;;;-4.80;1.00;;;;;;6110614;23;20041;-78
2024/01/10 03:06:38;;;;;;;93.93;51.92;;;-5.00;99.90;;;;;;6155662;23;20078;-77
2024/01/10 03:09:31;;;;;;;94.00;52.35;;;-5.00;1.00;;;;;;6122829;23;20017;-77
2024/01/10 03:12:20;;;;;;;101.85;57.40;;;-4.90;1.00;;;;;;6158568;23;20024;-77
2024/01/10 03:14:58;;;;;;;97.82;54.35;;;-4.90;1.00;;;;;;6141662;23;20013;-80
2024/01/10 03:20:59;;;;;;;98.10;55.13;;;-4.90;1.00;;;;;;6119528;23;20029;-80
2024/01/10 03:23:55;;;;;;;118.90;66.72;;;-5.00;1.00;;;;;;6111449;23;20512;-78
2024/01/10 03:29:44;;;;;;;115.78;66.85;;;-5.00;99.90;;;;;;6129854;23;20045;-75
2024/01/10 03:32:31;;;;;;;125.43;69.93;;;-5.10;99.90;;;;;;6104658;23;20022;-76
2024/01/10 03:35:24;;;;;;;115.38;66.20;;;-5.10;99.90;;;;;;6105236;23;20022;-77
2024/01/10 03:38:19;;;;;;;112.25;61.42;;;-5.20;99.90;;;;;;6103780;23;20046;-76
2024/01/10 03:44:32;;;;;;;105.93;57.33;;;-5.20;99.90;;;;;;6137321;23;20041;-77
2024/01/10 03:47:53;;;;;;;104.80;58.20;;;-5.20;99.90;;;;;;6152079;23;20016;-78
2024/01/10 03:51:25;;;;;;;105.57;58.08;;;-5.30;99.90;;;;;;6140634;23;20049;-77
2024/01/10 03:53:57;;;;;;;102.65;56.95;;;-5.20;99.90;;;;;;6149670;23;20018;-77
2024/01/10 03:56:31;;;;;;;109.10;61.77;;;-5.10;99.90;;;;;;6120359;23;20041;-77
2024/01/10 03:59:18;;;;;;;110.68;63.90;;;-5.10;1.00;;;;;;6150311;23;20271;-78
2024/01/10 04:01:56;;;;;;;110.72;61.72;;;-5.20;1.00;;;;;;6127417;23;20016;-78
2024/01/10 04:04:30;;;;;;;106.55;60.38;;;-5.20;87.10;;;;;;6120937;23;20057;-77
2024/01/10 04:07:21;;;;;;;112.70;63.45;;;-5.20;99.90;;;;;;6105960;23;20400;-77
2024/01/10 04:09:58;;;;;;;116.32;64.85;;;-5.20;99.90;;;;;;6102857;23;20472;-76
2024/01/10 04:12:30;;;;;;;122.75;69.10;;;-5.30;28.90;;;;;;6140063;23;20027;-78
2024/01/10 04:15:00;;;;;;;124.57;71.10;;;-5.30;99.90;;;;;;6110681;23;20053;-78
2024/01/10 04:20:18;;;;;;;121.55;70.40;;;-5.30;1.00;;;;;;6132402;23;20073;-75
2024/01/10 04:22:50;;;;;;;121.78;69.38;;;-5.30;1.00;;;;;;6130242;23;20338;-76
2024/01/10 04:25:21;;;;;;;121.25;70.55;;;-5.30;1.00;;;;;;6129394;23;20026;-77
2024/01/10 04:27:55;;;;;;;122.10;71.28;;;-5.40;1.00;;;;;;6101799;23;20022;-75
2024/01/10 04:30:26;;;;;;;116.90;69.75;;;-5.40;1.00;;;;;;6102384;23;20065;-75
2024/01/10 04:33:00;;;;;;;122.50;72.07;;;-5.40;1.00;;;;;;6101694;23;20018;-75
2024/01/10 04:35:37;;;;;;;119.20;71.05;;;-5.40;1.00;;;;;;6126074;23;20028;-74
2024/01/10 04:38:18;;;;;;;111.40;66.45;;;-5.40;1.00;;;;;;6102385;23;20093;-76
2024/01/10 04:40:47;;;;;;;122.10;68.47;;;-5.40;1.00;;;;;;6101918;23;20022;-76
2024/01/10 04:43:17;;;;;;;122.15;68.68;;;-5.50;1.00;;;;;;6127267;23;20126;-76
2024/01/10 04:45:48;;;;;;;125.55;72.80;;;-5.50;1.00;;;;;;6102209;23;20025;-75
2024/01/10 04:48:20;;;;;;;123.75;71.10;;;-5.50;1.00;;;;;;6128584;23;20018;-78
2024/01/10 04:50:50;;;;;;;121.35;69.78;;;-5.50;1.00;;;;;;6103018;23;20018;-77
2024/01/10 04:53:22;;;;;;;119.28;69.55;;;-5.50;1.00;;;;;;6151602;23;20017;-77
2024/01/10 04:55:58;;;;;;;121.85;71.05;;;-5.50;1.00;;;;;;6126535;23;20026;-78
2024/01/10 04:58:39;;;;;;;113.75;64.57;;;-5.50;1.00;;;;;;6122049;23;20049;-77
2024/01/10 05:01:27;;;;;;;;;;;;;;;;;;;;;
2024/01/10 05:04:12;;;;;;;119.50;70.28;;;-5.50;1.00;;;;;;6104796;23;20045;-75
2024/01/10 05:06:49;;;;;;;120.75;68.25;;;-5.40;1.00;;;;;;6112522;23;20018;-78
2024/01/10 05:09:26;;;;;;;107.63;62.65;;;-5.30;1.00;;;;;;6123583;23;20081;-78
2024/01/10 05:11:57;;;;;;;110.20;63.28;;;-5.30;1.00;;;;;;6125789;23;20050;-78
2024/01/10 05:14:31;;;;;;;111.60;63.95;;;-5.30;99.90;;;;;;6159947;23;20002;-77
2024/01/10 05:17:00;;;;;;;125.35;72.07;;;-5.50;99.90;;;;;;6147597;23;20343;-76
2024/01/10 05:19:29;;;;;;;128.55;74.38;;;-5.70;99.90;;;;;;6101024;23;20414;-77
2024/01/10 05:22:10;;;;;;;129.43;72.60;;;-5.90;99.90;;;;;;6102746;23;20018;-78
2024/01/10 05:24:47;;;;;;;122.38;70.47;;;-5.90;1.00;;;;;;6107404;23;20018;-78
2024/01/10 05:30:14;;;;;;;136.35;76.78;;;-5.70;99.90;;;;;;6130130;23;20052;-77
2024/01/10 05:33:01;;;;;;;230.27;109.38;;;-5.60;1.00;;;;;;6116326;23;20042;-78
2024/01/10 05:35:35;;;;;;;270.30;128.02;;;-5.60;1.00;;;;;;6113123;23;20018;-79
2024/01/10 05:38:06;;;;;;;242.50;121.55;;;-5.60;99.90;;;;;;6120898;23;20081;-77
2024/01/10 05:40:45;;;;;;;187.57;97.72;;;-5.50;99.90;;;;;;6103215;23;20022;-76
2024/01/10 05:43:19;;;;;;;150.55;83.53;;;-5.30;99.90;;;;;;6103201;23;20029;-78
2024/01/10 05:45:52;;;;;;;167.77;88.55;;;-5.30;1.00;;;;;;6105963;23;20018;-76
2024/01/10 05:48:27;;;;;;;212.88;110.28;;;-5.20;99.90;;;;;;6159882;23;20187;-78
2024/01/10 05:51:09;;;;;;;241.88;120.85;;;-5.30;99.90;;;;;;6159197;23;20043;-77
2024/01/10 05:53:54;;;;;;;202.88;108.57;;;-5.30;99.90;;;;;;6134846;23;20018;-79
2024/01/10 05:56:40;;;;;;;292.08;141.88;;;-5.30;99.90;;;;;;6104042;23;20458;-77
2024/01/10 06:02:10;;;;;;;318.00;154.98;;;-5.40;1.00;;;;;;6101728;23;20018;-77
2024/01/10 06:04:46;;;;;;;283.88;146.25;;;-5.40;99.90;;;;;;6103706;23;20097;-76
2024/01/10 06:07:17;;;;;;;257.00;138.10;;;-5.40;99.90;;;;;;6107274;23;20060;-77
2024/01/10 06:09:50;;;;;;;239.90;129.05;;;-5.50;99.90;;;;;;6128668;23;20022;-76
2024/01/10 06:12:25;;;;;;;209.32;118.72;;;-5.50;99.90;;;;;;6106653;23;20081;-79
2024/01/10 06:14:57;;;;;;;214.02;123.80;;;-5.40;99.90;;;;;;6119230;23;20025;-78
2024/01/10 06:17:49;;;;;;;232.85;131.10;;;-5.30;99.90;;;;;;6153804;23;20021;-76
2024/01/10 06:24:10;;;;;;;247.07;135.25;;;-5.40;99.90;;;;;;6139076;23;20021;-77
2024/01/10 06:27:08;;;;;;;;;;;;;;;;;;;;;
2024/01/10 06:33:46;;;;;;;;;;;;;;;;;;;;;
2024/01/10 06:36:36;;;;;;;231.88;124.75;;;-5.30;99.90;;;;;;6102923;23;20074;-76
2024/01/10 08:36:28;;;;;;;344.90;216.82;;;-2.40;99.90;;;;;;6047614;23;20039;-81
2024/01/10 08:38:57;;;;;;;374.67;236.05;;;-2.30;99.90;;;;;;6045604;23;20023;-78
2024/01/10 08:41:28;;;;;;;368.38;228.15;;;-2.20;99.90;;;;;;6093307;23;20025;-78
2024/01/10 08:43:59;;;;;;;364.38;228.55;;;-2.10;99.90;;;;;;6108123;23;20018;-78
2024/01/10 09:06:26;;;;;;;338.25;200.00;;;-1.30;99.90;;;;;;5890096;24;20029;-79
2024/01/10 09:12:21;;;;;;;277.25;161.40;;;-1.10;99.90;;;;;;6006616;23;20031;-76
2024/01/10 09:43:24;;;;;;;187.38;97.47;;;-0.10;99.90;;;;;;5868933;24;20014;-79
2024/01/10 10:55:59;;;;;;;194.48;101.85;;;1.20;1.00;;;;;;5841057;24;20480;-81
2024/01/10 13:36:41;;;;;;;324.08;144.57;;;1.90;1.00;;;;;;6026541;22;19983;-80
2024/01/10 13:39:16;;;;;;;329.80;150.18;;;1.90;1.00;;;;;;6202924;23;20021;-80
2024/01/10 13:41:44;;;;;;;346.55;156.65;;;1.80;1.00;;;;;;6195878;23;20009;-81
2024/01/10 13:44:12;;;;;;;356.67;157.48;;;1.80;1.00;;;;;;6195024;23;20009;-80
2024/01/10 13:46:41;;;;;;;336.40;150.77;;;1.80;1.00;;;;;;6194144;23;20071;-80
2024/01/10 13:49:12;;;;;;;341.00;149.13;;;1.70;1.00;;;;;;6193493;23;20071;-81
2024/01/10 13:51:42;;;;;;;368.98;158.95;;;1.50;1.00;;;;;;6195541;23;20500;-80
2024/01/10 13:54:10;;;;;;;371.33;156.85;;;1.40;1.00;;;;;;6193449;23;20083;-79
2024/01/10 13:56:39;;;;;;;370.45;153.40;;;1.30;84.90;;;;;;6193553;23;20084;-79
2024/01/10 13:59:06;;;;;;;336.02;145.90;;;1.20;99.90;;;;;;6193592;23;20020;-79
2024/01/10 14:01:34;;;;;;;330.98;144.25;;;1.20;99.90;;;;;;6193171;23;20019;-80
2024/01/10 14:10:25;;;;;;;316.90;132.88;;;1.10;99.90;;;;;;6246116;23;20027;-80
2024/01/10 14:12:55;;;;;;;319.13;136.80;;;1.00;99.90;;;;;;6255114;23;20018;-82
2024/01/10 14:15:22;;;;;;;319.35;135.27;;;1.00;99.90;;;;;;6254271;23;20042;-85
2024/01/10 14:17:52;;;;;;;319.23;136.10;;;0.90;99.90;;;;;;6246621;23;20016;-82
2024/01/10 14:20:21;;;;;;;308.42;134.73;;;0.90;99.90;;;;;;6261581;23;20016;-79
2024/01/10 14:22:50;;;;;;;315.60;135.00;;;0.90;99.90;;;;;;6255093;23;20408;-81
2024/01/10 14:25:17;;;;;;;304.77;134.50;;;0.80;99.90;;;;;;6254579;23;20012;-79
2024/01/10 14:27:47;;;;;;;306.48;132.93;;;0.80;99.90;;;;;;6220437;23;20024;-81
2024/01/10 14:30:15;;;;;;;297.13;133.02;;;0.90;99.90;;;;;;6220778;23;20030;-78
2024/01/10 14:32:43;;;;;;;302.73;131.20;;;0.90;1.00;;;;;;6254389;23;20020;-80
2024/01/10 14:35:10;;;;;;;283.80;124.22;;;1.00;99.90;;;;;;6260434;23;20066;-81
2024/01/10 14:37:40;;;;;;;279.65;123.47;;;1.00;99.90;;;;;;6260529;23;20020;-82
2024/01/10 14:40:24;;;;;;;268.95;118.25;;;1.10;99.90;;;;;;6228535;23;20030;-83
2024/01/10 14:43:19;;;;;;;248.93;110.68;;;1.10;99.90;;;;;;6236155;22;20154;-79
2024/01/10 14:48:35;;;;;;;271.88;117.22;;;1.10;99.90;;;;;;6262784;22;20050;-82
2024/01/10 14:51:05;;;;;;;268.75;116.72;;;1.10;99.90;;;;;;6220373;23;20353;-79
2024/01/10 14:53:34;;;;;;;266.48;118.50;;;1.20;99.90;;;;;;6217560;23;20032;-79
2024/01/10 14:56:02;;;;;;;252.90;110.13;;;1.20;99.90;;;;;;6255614;23;20012;-80
2024/01/10 14:58:34;;;;;;;257.00;111.20;;;1.20;99.90;;;;;;6253737;23;20016;-82
2024/01/10 15:01:02;;;;;;;250.35;112.00;;;1.30;99.90;;;;;;6254008;23;20020;-79
2024/01/10 15:03:29;;;;;;;248.18;109.70;;;1.30;99.90;;;;;;6254049;23;20008;-81
2024/01/10 15:05:57;;;;;;;273.95;119.35;;;1.30;99.90;;;;;;6254729;23;20032;-80
2024/01/10 15:08:25;;;;;;;266.48;118.20;;;1.30;99.90;;;;;;6254518;23;20012;-80
2024/01/10 15:10:52;;;;;;;247.52;109.07;;;1.30;99.90;;;;;;6242964;23;20100;-79
2024/01/10 15:13:20;;;;;;;263.02;114.72;;;1.30;99.90;;;;;;6254785;23;20012;-81
2024/01/10 15:15:49;;;;;;;288.33;123.93;;;1.40;99.90;;;;;;6254137;23;20020;-79
2024/01/10 15:18:19;;;;;;;276.60;121.28;;;1.30;99.90;;;;;;6217339;23;20019;-79
2024/01/10 15:20:47;;;;;;;277.08;121.03;;;1.30;99.90;;;;;;6253057;23;20016;-79
2024/01/10 15:23:15;;;;;;;290.17;124.68;;;1.30;99.90;;;;;;6215046;23;20080;-80
2024/01/10 15:25:43;;;;;;;282.20;122.43;;;1.30;99.90;;;;;;6215157;23;20012;-81
2024/01/10 15:28:10;;;;;;;288.58;124.47;;;1.20;99.90;;;;;;6215559;23;20445;-79
2024/01/10 15:30:38;;;;;;;306.52;128.90;;;1.20;99.90;;;;;;6252406;23;20035;-82
2024/01/10 15:33:09;;;;;;;283.35;124.90;;;1.10;1.00;;;;;;6253870;23;20027;-80
2024/01/10 15:35:37;;;;;;;288.17;129.05;;;1.20;1.00;;;;;;6252996;23;20031;-82
2024/01/10 15:38:04;;;;;;;301.75;132.20;;;1.10;1.00;;;;;;6252800;23;20012;-78
2024/01/10 15:40:32;;;;;;;303.95;134.63;;;1.10;1.00;;;;;;6253334;23;20016;-77
2024/01/10 15:43:00;;;;;;;267.83;122.63;;;1.10;1.00;;;;;;6253776;23;20044;-82
2024/01/10 15:45:27;;;;;;;275.35;124.63;;;1.10;1.00;;;;;;6253049;23;20012;-80
2024/01/10 15:47:55;;;;;;;270.73;125.78;;;1.10;1.00;;;;;;6253096;23;20022;-79
2024/01/10 15:50:24;;;;;;;263.23;122.75;;;1.10;1.00;;;;;;6255110;23;20020;-80
2024/01/10 15:52:52;;;;;;;268.00;124.18;;;1.10;1.00;;;;;;6254013;23;20022;-79
2024/01/10 15:55:19;;;;;;;263.75;122.65;;;1.10;1.00;;;;;;6252475;23;20352;-80
2024/01/10 15:57:47;;;;;;;266.92;121.43;;;1.10;1.00;;;;;;6215508;23;20471;-82
2024/01/10 16:00:15;;;;;;;236.43;110.10;;;1.10;1.00;;;;;;6253401;23;20076;-80
2024/01/10 16:02:43;;;;;;;229.18;109.65;;;1.10;1.00;;;;;;6253968;23;20091;-79
2024/01/10 16:05:12;;;;;;;251.65;114.93;;;1.20;1.00;;;;;;6254041;23;20020;-80
2024/01/10 16:07:41;;;;;;;251.90;113.38;;;1.10;1.00;;;;;;6218813;23;20452;-84
2024/01/10 16:10:10;;;;;;;230.68;109.60;;;1.10;1.00;;;;;;6257113;23;20038;-81
2024/01/10 16:12:38;;;;;;;236.82;112.00;;;1.10;1.00;;;;;;6257514;23;20082;-81
2024/01/10 16:15:07;;;;;;;234.32;109.75;;;1.10;1.00;;;;;;6257225;23;20759;-81
2024/01/10 16:17:40;;;;;;;235.63;110.88;;;1.10;1.00;;;;;;6261107;23;20016;-82
2024/01/10 16:20:09;;;;;;;311.25;145.27;;;1.10;1.00;;;;;;6264388;23;20443;-80
2024/01/10 16:22:36;;;;;;;325.20;156.70;;;1.10;1.00;;;;;;6249616;23;20016;-81
2024/01/10 16:25:14;;;;;;;348.17;154.52;;;1.10;1.00;;;;;;6258428;23;20273;-78
2024/01/10 16:27:44;;;;;;;324.35;149.43;;;1.20;99.90;;;;;;6222406;23;20447;-80
2024/01/10 16:30:12;;;;;;;294.60;137.98;;;1.00;99.90;;;;;;6268398;23;20016;-79
2024/01/10 16:32:40;;;;;;;243.50;114.00;;;0.90;1.00;;;;;;6232392;23;20050;-78
2024/01/10 16:35:08;;;;;;;143.55;75.95;;;0.70;1.00;;;;;;6269648;23;20059;-79
2024/01/10 16:37:38;;;;;;;140.73;77.30;;;0.60;99.90;;;;;;6268035;23;20023;-79
2024/01/10 16:40:09;;;;;;;148.57;80.18;;;0.50;99.90;;;;;;6264130;23;20237;-79
2024/01/10 16:42:49;;;;;;;131.90;71.75;;;0.50;99.90;;;;;;6253296;23;20031;-80
2024/01/10 16:45:19;;;;;;;101.22;59.40;;;0.40;99.90;;;;;;6261505;23;20012;-77
2024/01/10 16:47:47;;;;;;;105.70;58.72;;;0.40;99.90;;;;;;6261705;23;20024;-78
2024/01/10 16:50:14;;;;;;;136.52;75.55;;;0.30;99.90;;;;;;6260827;23;20119;-79
2024/01/10 16:56:08;;;;;;;69.47;42.80;;;0.30;99.90;;;;;;6192198;23;20444;-87
2024/01/10 17:02:58;;;;;;;56.92;33.95;;;0.10;94.50;;;;;;6264160;23;20043;-83
2024/01/10 17:05:25;;;;;;;78.82;46.42;;;0.00;52.70;;;;;;6266928;23;20012;-80
2024/01/10 17:08:28;;;;;;;120.43;71.72;;;-0.10;99.90;;;;;;6229673;23;20066;-89
2024/01/10 17:11:13;;;;;;;147.55;89.65;;;-0.20;99.90;;;;;;6274466;23;20081;-87
2024/01/10 17:13:47;;;;;;;167.98;96.20;;;-0.50;1.00;;;;;;6270445;23;20092;-83
2024/01/10 17:16:56;;;;;;;165.98;97.70;;;-0.60;1.00;;;;;;6259962;23;20024;-86
2024/01/10 17:19:36;;;;;;;173.50;105.30;;;-0.60;1.00;;;;;;6206014;23;20016;-85
2024/01/10 17:22:10;;;;;;;165.32;99.13;;;-0.50;99.90;;;;;;6254826;23;20539;-83
2024/01/10 17:24:37;;;;;;;148.00;87.78;;;-0.40;99.90;;;;;;6264095;23;20016;-82
2024/01/10 17:27:07;;;;;;;146.68;85.35;;;-0.40;99.90;;;;;;6265966;23;20020;-83
2024/01/10 17:29:36;;;;;;;153.63;88.07;;;-0.50;99.90;;;;;;6235757;23;20073;-81
2024/01/10 17:32:04;;;;;;;152.82;89.65;;;-0.60;1.00;;;;;;6227616;23;20437;-82
2024/01/10 17:34:31;;;;;;;162.32;97.07;;;-0.80;1.00;;;;;;6220991;23;20016;-82
2024/01/10 17:36:59;;;;;;;134.38;79.65;;;-1.00;99.90;;;;;;6221004;23;20020;-82
2024/01/10 17:39:27;;;;;;;149.43;86.00;;;-1.10;99.90;;;;;;6258990;23;20032;-82
2024/01/10 17:41:55;;;;;;;135.55;80.05;;;-1.10;99.90;;;;;;6262218;23;20093;-85
2024/01/10 17:44:24;;;;;;;148.98;87.38;;;-1.10;1.00;;;;;;6223564;23;20027;-80
2024/01/10 17:46:52;;;;;;;148.07;86.63;;;-1.20;1.00;;;;;;6230573;23;20020;-82
2024/01/10 17:49:19;;;;;;;142.27;82.35;;;-1.20;1.00;;;;;;6268664;23;20012;-80
2024/01/10 17:51:48;;;;;;;146.77;79.50;;;-1.10;1.00;;;;;;6268573;23;20035;-81
2024/01/10 17:54:16;;;;;;;148.90;83.50;;;-1.00;1.00;;;;;;6232500;23;20070;-84
2024/01/10 17:56:43;;;;;;;158.25;85.55;;;-1.00;99.90;;;;;;6271228;23;20012;-80
2024/01/10 17:59:11;;;;;;;164.65;89.47;;;-1.00;99.90;;;;;;6233056;23;20020;-84
2024/01/10 18:01:42;;;;;;;165.40;89.00;;;-1.00;99.90;;;;;;6267233;23;20031;-81
2024/01/10 18:04:12;;;;;;;194.43;105.45;;;-1.10;99.90;;;;;;6264950;23;20012;-80
2024/01/10 18:06:39;;;;;;;210.15;109.07;;;-1.20;99.90;;;;;;6262582;23;20765;-79
2024/01/10 18:09:07;;;;;;;193.73;101.03;;;-1.20;99.90;;;;;;6267619;23;20028;-80
2024/01/10 18:11:35;;;;;;;197.68;107.50;;;-1.50;99.90;;;;;;6231869;23;20016;-82
2024/01/10 18:14:03;;;;;;;178.05;96.72;;;-1.60;99.90;;;;;;6264181;23;20019;-81
2024/01/10 18:16:37;;;;;;;184.75;101.22;;;-1.60;1.00;;;;;;6264354;23;20036;-87
2024/01/10 18:19:12;;;;;;;205.52;106.53;;;-1.70;1.00;;;;;;6252975;23;20024;-79
2024/01/10 18:21:40;;;;;;;184.73;104.40;;;-1.80;1.00;;;;;;6259228;23;20412;-80
2024/01/10 18:24:07;;;;;;;188.55;103.35;;;-1.80;1.00;;;;;;6255714;23;20030;-82
2024/01/10 18:26:35;;;;;;;174.88;100.05;;;-1.90;1.00;;;;;;6254994;23;20111;-81
2024/01/10 18:29:04;;;;;;;167.20;95.43;;;-1.90;1.00;;;;;;6255929;23;20087;-81
2024/01/10 18:31:33;;;;;;;172.30;96.95;;;-1.90;1.00;;;;;;6256755;23;20040;-81
2024/01/10 18:34:10;;;;;;;171.30;94.85;;;-2.00;1.00;;;;;;6256650;23;20348;-81
2024/01/10 18:36:43;;;;;;;182.07;104.18;;;-2.00;1.00;;;;;;6260368;23;20012;-84
2024/01/10 18:39:13;;;;;;;175.18;101.38;;;-2.20;1.00;;;;;;6223155;23;20022;-82
2024/01/10 18:41:42;;;;;;;167.20;97.05;;;-2.40;1.00;;;;;;6260324;23;20024;-81
2024/01/10 18:44:13;;;;;;;151.20;91.43;;;-2.50;1.00;;;;;;6268328;23;20016;-82
2024/01/10 18:46:40;;;;;;;149.10;90.43;;;-2.60;1.00;;;;;;6277044;23;20016;-82
2024/01/10 18:49:09;;;;;;;158.27;94.05;;;-2.80;1.00;;;;;;6265814;23;20030;-81
2024/01/10 18:51:40;;;;;;;161.43;98.95;;;-2.80;1.00;;;;;;6278275;23;20082;-81
2024/01/10 18:54:09;;;;;;;185.32;108.38;;;-2.90;22.00;;;;;;6266659;22;20012;-81
2024/01/10 18:56:39;;;;;;;169.60;103.13;;;-2.90;99.90;;;;;;6232635;23;20040;-81
2024/01/10 18:59:07;;;;;;;179.43;106.80;;;-2.90;99.90;;;;;;6219659;23;20012;-80
2024/01/10 19:01:35;;;;;;;168.82;97.88;;;-2.90;99.90;;;;;;6256071;23;20016;-81
2024/01/10 19:04:14;;;;;;;148.43;87.28;;;-2.80;1.00;;;;;;6256530;23;20016;-82
2024/01/10 19:06:42;;;;;;;137.45;80.85;;;-2.70;99.90;;;;;;6259118;23;20018;-81
2024/01/10 19:09:10;;;;;;;134.57;81.93;;;-2.70;1.00;;;;;;6256510;23;20039;-81
2024/01/10 19:11:38;;;;;;;166.23;97.43;;;-2.70;1.00;;;;;;6256185;23;20016;-82
2024/01/10 19:14:08;;;;;;;174.32;99.03;;;-2.70;1.00;;;;;;6256145;23;20035;-82
2024/01/10 19:16:38;;;;;;;162.57;95.57;;;-2.80;1.00;;;;;;6255364;23;20062;-81
2024/01/10 19:19:05;;;;;;;187.70;109.85;;;-2.80;1.00;;;;;;6254759;23;20012;-81
2024/01/10 19:21:34;;;;;;;171.32;99.63;;;-2.90;1.00;;;;;;6254956;23;20016;-81
2024/01/10 19:24:03;;;;;;;195.32;115.15;;;-3.00;1.00;;;;;;6255066;23;20019;-81
2024/01/10 19:26:31;;;;;;;213.27;125.03;;;-3.00;1.00;;;;;;6253672;23;20074;-81
2024/01/10 19:28:58;;;;;;;203.23;119.93;;;-3.00;1.00;;;;;;6254377;23;20428;-82
2024/01/10 19:31:26;;;;;;;194.02;114.07;;;-3.10;1.00;;;;;;6254285;23;20016;-82
2024/01/10 19:33:54;;;;;;;194.25;113.47;;;-3.10;1.00;;;;;;6254485;23;20061;-82
2024/01/10 19:36:22;;;;;;;187.52;111.60;;;-3.20;1.00;;;;;;6216118;23;20498;-82
2024/01/10 19:38:52;;;;;;;199.15;113.07;;;-3.30;1.00;;;;;;6216078;23;20020;-81
2024/01/10 19:41:20;;;;;;;193.00;111.55;;;-3.40;1.00;;;;;;6242424;23;20027;-82
2024/01/10 19:43:48;;;;;;;204.15;115.32;;;-3.40;1.00;;;;;;6255650;23;20079;-81
2024/01/10 19:46:17;;;;;;;268.75;159.18;;;-3.40;1.00;;;;;;6217788;23;20035;-81
2024/01/10 19:48:45;;;;;;;275.65;162.73;;;-3.50;1.00;;;;;;6254876;23;20031;-81
2024/01/10 19:51:13;;;;;;;234.02;134.18;;;-3.50;1.00;;;;;;6255864;23;20016;-81
2024/01/10 19:53:43;;;;;;;238.45;129.18;;;-3.60;1.00;;;;;;6216943;23;20020;-81
2024/01/10 19:56:12;;;;;;;256.63;141.07;;;-3.60;1.00;;;;;;6254968;23;20086;-81
2024/01/10 19:58:39;;;;;;;258.10;144.57;;;-3.60;1.00;;;;;;6253987;23;20016;-83
2024/01/10 20:01:07;;;;;;;262.13;141.15;;;-3.70;1.00;;;;;;6254287;23;20078;-81
2024/01/10 20:03:35;;;;;;;296.55;163.00;;;-3.70;1.00;;;;;;6254820;23;20016;-82
2024/01/10 20:06:03;;;;;;;249.80;135.90;;;-3.80;1.00;;;;;;6219987;23;20016;-82
2024/01/10 20:08:33;;;;;;;401.88;197.73;;;-3.80;1.00;;;;;;6257921;23;20024;-81
2024/01/10 20:11:04;;;;;;;419.98;202.95;;;-3.90;1.00;;;;;;6257747;23;20012;-82
2024/01/10 20:13:35;;;;;;;343.40;168.73;;;-4.00;1.00;;;;;;6221231;23;20087;-82
2024/01/10 20:16:03;;;;;;;342.33;169.05;;;-4.00;1.00;;;;;;6233420;23;20069;-84
2024/01/10 20:18:33;;;;;;;330.67;168.00;;;-4.00;1.00;;;;;;6261643;23;20019;-83
2024/01/10 20:21:05;;;;;;;268.95;149.48;;;-4.00;1.00;;;;;;6233521;23;20024;-84
2024/01/10 20:23:34;;;;;;;261.42;147.40;;;-4.10;1.00;;;;;;6222113;23;20020;-85
2024/01/10 20:26:02;;;;;;;258.35;145.48;;;-4.10;1.00;;;;;;6265973;23;20056;-85
2024/01/10 20:28:31;;;;;;;255.10;141.25;;;-4.10;1.00;;;;;;6228607;23;20024;-85
2024/01/10 20:31:01;;;;;;;281.45;153.15;;;-4.10;1.00;;;;;;6200596;23;20024;-83
2024/01/10 20:33:29;;;;;;;313.95;178.90;;;-4.20;1.00;;;;;;6259849;23;20024;-84
2024/01/10 20:35:56;;;;;;;361.83;201.40;;;-4.30;1.00;;;;;;6253933;23;20016;-84
2024/01/10 20:38:29;;;;;;;395.40;221.70;;;-4.30;1.00;;;;;;6228087;23;20020;-86
2024/01/10 20:40:57;;;;;;;340.67;184.90;;;-4.40;1.00;;;;;;6268185;23;20017;-85
2024/01/10 20:43:26;;;;;;;363.63;199.70;;;-4.50;1.00;;;;;;6222465;23;20098;-85
2024/01/10 20:45:54;;;;;;;351.95;194.20;;;-4.50;1.00;;;;;;6256376;23;20016;-85
2024/01/10 20:48:35;;;;;;;351.20;198.00;;;-4.60;1.00;;;;;;6257675;23;20020;-85
2024/01/10 20:51:03;;;;;;;365.08;205.02;;;-4.40;1.00;;;;;;6219728;23;20059;-85
2024/01/10 20:53:39;;;;;;;342.35;188.05;;;-4.40;1.00;;;;;;6264937;23;20448;-85
2024/01/10 20:56:06;;;;;;;;;;;-4.50;1.00;;;;;;6223377;23;20016;-84
2024/01/10 20:58:40;;;;;;;444.40;243.82;;;-4.50;1.00;;;;;;6252195;23;20196;-82
2024/01/10 21:01:31;;;;;;;353.38;203.77;;;-4.60;1.00;;;;;;6232768;23;20020;-85
2024/01/10 21:06:59;;;;;;;469.63;261.55;;;-4.70;1.00;;;;;;6257996;23;20256;-85
2024/01/10 21:09:27;;;;;;;459.17;254.27;;;-4.80;1.00;;;;;;6266939;23;20012;-84
2024/01/10 21:12:16;;;;;;;445.50;254.15;;;-4.90;1.00;;;;;;6205241;23;20040;-85
2024/01/10 21:14:45;;;;;;;442.42;249.07;;;-5.10;1.00;;;;;;6223625;23;20107;-85
2024/01/10 21:17:13;;;;;;;399.38;222.95;;;-5.20;1.00;;;;;;6256572;23;20089;-85
2024/01/10 21:19:45;;;;;;;373.70;210.27;;;-5.30;1.00;;;;;;6257784;23;20013;-85
2024/01/10 21:22:13;;;;;;;300.77;167.52;;;-5.30;99.90;;;;;;6255848;23;20023;-85
2024/01/10 21:24:41;;;;;;;283.05;155.43;;;-5.30;99.90;;;;;;6257463;23;20043;-85
2024/01/10 21:27:09;;;;;;;314.80;174.00;;;-5.30;99.90;;;;;;6221501;23;20016;-84
2024/01/10 21:29:36;;;;;;;296.98;163.95;;;-5.30;99.90;;;;;;6256464;23;20032;-84